Time;durP1;ratioP1;P1;durP2;ratioP2;P2;SDS_P1;SDS_P2;PMS_P1;PMS_P2;Temp;Humidity;BMP_temperature;BMP_pressure;BME280_temperature;BME280_humidity;BME280_pressure;Samples;Min_cycle;Max_cycle;Signal;HPM_P1;HPM_P2
2021/08/26 00:07:40;;;;;;;;;;;;;;;20.52;65.20;100420.69;5117325;28;1465;-46
2021/08/26 00:10:08;;;;;;;;;;;;;;;20.32;66.11;100427.47;5118083;28;854;-51
2021/08/26 00:12:37;;;;;;;;;;;;;;;20.35;64.28;100421.31;5117847;28;1037;-51
2021/08/26 00:15:03;;;;;;;;;;;;;;;19.63;60.22;100417.16;5118160;28;747;-58
2021/08/26 00:17:28;;;;;;;;;;;;;;;19.77;60.10;100420.75;5118045;28;787;-55
2021/08/26 00:19:54;;;;;;;;;;;;;;;20.20;62.87;100418.88;5117755;28;834;-49
2021/08/26 00:22:19;;;;;;;;;;;;;;;20.77;63.40;100422.09;5117079;28;1914;-50
2021/08/26 00:24:45;;;;;;;;;;;;;;;20.93;64.46;100414.31;5117850;28;838;-50
2021/08/26 00:27:10;;;;;;;;;;;;;;;21.15;64.26;100405.22;5117500;28;978;-46
2021/08/26 00:29:36;;;;;;;;;;;;;;;20.44;65.69;100404.84;5099587;28;1218;-49
2021/08/26 00:32:01;;;;;;;;;;;;;;;20.14;66.91;100398.84;5117231;28;1018;-53
2021/08/26 00:34:27;;;;;;;;;;;;;;;20.02;63.85;100396.59;5099530;28;1285;-47
2021/08/26 00:36:52;;;;;;;;;;;;;;;19.53;60.14;100404.38;5117243;28;787;-49
2021/08/26 00:39:18;;;;;;;;;;;;;;;20.13;60.10;100408.25;5118108;28;728;-47
2021/08/26 00:41:43;;;;;;;;;;;;;;;19.86;63.29;100407.09;5117231;28;1005;-59
2021/08/26 00:44:08;;;;;;;;;;;;;;;20.60;63.57;100408.13;5117525;28;1973;-50
2021/08/26 00:46:34;;;;;;;;;;;;;;;20.84;64.49;100410.63;5117466;28;786;-56
2021/08/26 00:48:59;;;;;;;;;;;;;;;21.13;63.30;100404.69;5099082;28;1664;-52
2021/08/26 00:51:25;;;;;;;;;;;;;;;20.51;63.91;100408.03;5117089;28;850;-46
2021/08/26 00:53:51;;;;;;;;;;;;;;;19.82;65.17;100397.78;5117345;28;823;-47
2021/08/26 00:56:17;;;;;;;;;;;;;;;19.58;61.91;100389.66;5116912;28;970;-57
2021/08/26 00:58:46;;;;;;;;;;;;;;;19.04;60.36;100383.66;5117242;28;819;-57
2021/08/26 01:01:12;;;;;;;;;;;;;;;19.42;60.08;100398.22;5098972;28;846;-52
2021/08/26 01:04:01;;;;;;;;;;;;;;;19.45;59.34;100392.09;5116913;28;1921;-48
2021/08/26 01:06:27;;;;;;;;;;;;;;;19.78;58.44;100386.53;5103728;28;1535;-56
2021/08/26 01:09:05;;;;;;;;;;;;;;;20.02;58.72;100380.06;5098800;28;1177;-57
2021/08/26 01:11:34;;;;;;;;;;;;;;;20.27;58.85;100381.47;5098144;28;939;-46
2021/08/26 01:14:00;;;;;;;;;;;;;;;20.12;60.13;100396.41;5116747;28;764;-45
2021/08/26 01:16:25;;;;;;;;;;;;;;;19.92;61.04;100380.22;5117020;28;759;-45
2021/08/26 01:18:52;;;;;;;;;;;;;;;19.64;62.67;100385.69;5116984;28;795;-45
2021/08/26 01:21:18;;;;;;;;;;;;;;;19.44;62.03;100375.84;5116941;28;794;-57
2021/08/26 01:23:44;;;;;;;;;;;;;;;19.14;60.86;100378.81;5116742;28;1967;-49
2021/08/26 01:26:33;;;;;;;;;;;;;;;19.58;62.58;100375.88;5117206;28;1025;-57
2021/08/26 01:28:59;;;;;;;;;;;;;;;20.20;62.57;100377.47;5103271;28;1169;-50
2021/08/26 01:31:24;;;;;;;;;;;;;;;20.54;61.74;100373.44;5116833;28;794;-52
2021/08/26 01:33:50;;;;;;;;;;;;;;;20.82;61.06;100375.03;5116651;28;842;-47
2021/08/26 01:36:16;;;;;;;;;;;;;;;20.14;63.22;100366.53;5116489;28;775;-58
2021/08/26 01:38:42;;;;;;;;;;;;;;;19.94;64.38;100364.19;5117169;28;774;-48
2021/08/26 01:41:07;;;;;;;;;;;;;;;19.85;62.10;100363.25;5116727;28;861;-47
2021/08/26 01:43:34;;;;;;;;;;;;;;;19.24;61.44;100357.72;5116103;28;1984;-46
2021/08/26 01:45:59;;;;;;;;;;;;;;;19.26;61.99;100367.31;5116614;28;794;-47
2021/08/26 01:48:25;;;;;;;;;;;;;;;19.93;63.86;100362.56;5116684;28;842;-53
2021/08/26 01:50:50;;;;;;;;;;;;;;;20.37;64.77;100369.38;5116549;28;1574;-53
2021/08/26 01:53:16;;;;;;;;;;;;;;;20.80;63.67;100369.00;5111009;28;1482;-58
2021/08/26 01:55:41;;;;;;;;;;;;;;;21.06;62.44;100362.06;5105441;28;819;-46
2021/08/26 01:58:07;;;;;;;;;;;;;;;20.12;65.27;100351.41;5112209;28;1017;-58
2021/08/26 02:00:33;;;;;;;;;;;;;;;20.14;65.20;100354.69;5116605;28;838;-45
2021/08/26 02:02:58;;;;;;;;;;;;;;;19.71;63.60;100353.00;5116085;28;2007;-47
2021/08/26 02:05:23;;;;;;;;;;;;;;;19.35;62.16;100350.06;5116347;28;866;-57
2021/08/26 02:07:49;;;;;;;;;;;;;;;19.67;61.90;100346.47;5116441;28;1223;-54
2021/08/26 02:10:15;;;;;;;;;;;;;;;19.80;63.83;100356.72;5117323;28;767;-54
2021/08/26 02:12:40;;;;;;;;;;;;;;;20.45;64.15;100348.50;5115988;28;966;-46
2021/08/26 02:15:06;;;;;;;;;;;;;;;20.58;64.13;100342.13;5116147;28;561;-57
2021/08/26 02:17:31;;;;;;;;;;;;;;;20.86;62.66;100336.53;5117115;28;730;-58
2021/08/26 02:19:57;;;;;;;;;;;;;;;20.26;64.45;100334.81;5116171;28;854;-58
2021/08/26 02:22:22;;;;;;;;;;;;;;;20.20;64.85;100334.09;5116053;28;1921;-58
2021/08/26 02:24:47;;;;;;;;;;;;;;;19.93;62.50;100329.44;5098264;28;839;-45
2021/08/26 02:27:13;;;;;;;;;;;;;;;19.49;61.13;100335.22;5119365;28;1025;-55
2021/08/26 02:29:38;;;;;;;;;;;;;;;19.27;61.97;100326.78;5120255;28;795;-46
2021/08/26 02:32:04;;;;;;;;;;;;;;;19.05;64.53;100341.22;5120013;28;779;-57
2021/08/26 02:34:29;;;;;;;;;;;;;;;19.45;63.61;100341.66;5119402;28;870;-56
2021/08/26 02:36:55;;;;;;;;;;;;;;;20.17;64.26;100335.56;5120004;28;511;-50
2021/08/26 02:39:20;;;;;;;;;;;;;;;20.61;64.59;100326.88;5120223;28;752;-48
2021/08/26 02:41:46;;;;;;;;;;;;;;;20.71;64.94;100342.44;5118959;28;1001;-47
2021/08/26 02:44:11;;;;;;;;;;;;;;;20.82;64.45;100347.41;5119922;28;1909;-58
2021/08/26 02:46:36;;;;;;;;;;;;;;;20.54;64.55;100351.31;5119828;28;858;-47
2021/08/26 02:49:02;;;;;;;;;;;;;;;20.13;65.81;100334.56;5119205;28;1577;-46
2021/08/26 02:51:27;;;;;;;;;;;;;;;20.03;64.59;100336.69;5119896;28;786;-50
2021/08/26 02:53:53;;;;;;;;;;;;;;;19.80;61.55;100334.66;5119213;28;804;-55
2021/08/26 02:56:18;;;;;;;;;;;;;;;19.24;61.90;100338.44;5118930;28;1013;-56
2021/08/26 02:58:43;;;;;;;;;;;;;;;20.11;62.88;100330.47;5119494;28;747;-58
2021/08/26 03:01:09;;;;;;;;;;;;;;;20.30;65.10;100333.06;5119424;28;751;-50
2021/08/26 03:03:34;;;;;;;;;;;;;;;20.66;65.39;100338.63;5119153;28;1909;-57
2021/08/26 03:06:00;;;;;;;;;;;;;;;20.95;63.74;100325.53;5119137;28;803;-57
2021/08/26 03:08:25;;;;;;;;;;;;;;;20.26;65.33;100334.81;5119106;28;1043;-55
2021/08/26 03:10:50;;;;;;;;;;;;;;;19.90;64.98;100322.59;5119135;28;838;-60
2021/08/26 03:13:16;;;;;;;;;;;;;;;19.71;63.83;100330.13;5118803;28;974;-54
2021/08/26 03:15:41;;;;;;;;;;;;;;;19.71;62.27;100332.88;5119721;28;740;-57
2021/08/26 03:18:07;;;;;;;;;;;;;;;19.53;62.78;100340.09;5119381;28;858;-50
2021/08/26 03:20:32;;;;;;;;;;;;;;;19.36;62.38;100347.00;5118564;28;774;-54
2021/08/26 03:22:58;;;;;;;;;;;;;;;19.92;64.05;100344.34;5118880;28;1905;-57
2021/08/26 03:25:25;;;;;;;;;;;;;;;20.26;65.04;100341.16;5118837;28;767;-57
2021/08/26 03:27:51;;;;;;;;;;;;;;;20.70;65.38;100349.06;5118447;28;1005;-58
2021/08/26 03:30:16;;;;;;;;;;;;;;;21.07;64.33;100345.16;5118863;28;945;-51
2021/08/26 03:32:42;;;;;;;;;;;;;;;20.95;63.83;100344.88;5118698;28;878;-54
2021/08/26 03:35:08;;;;;;;;;;;;;;;20.18;66.30;100345.47;5118631;28;762;-58
2021/08/26 03:37:33;;;;;;;;;;;;;;;20.17;65.16;100345.78;5118798;28;962;-57
2021/08/26 03:39:59;;;;;;;;;;;;;;;19.80;61.75;100334.66;5118653;28;755;-58
2021/08/26 03:42:24;;;;;;;;;;;;;;;19.66;61.35;100342.88;5118110;28;1910;-51
2021/08/26 03:44:50;;;;;;;;;;;;;;;20.35;62.94;100339.28;5118051;28;779;-55
2021/08/26 03:47:15;;;;;;;;;;;;;;;20.57;64.66;100340.50;5118695;28;822;-58
2021/08/26 03:49:41;;;;;;;;;;;;;;;20.96;64.58;100335.47;5118233;28;1680;-56
2021/08/26 03:52:06;;;;;;;;;;;;;;;20.91;64.11;100343.88;5118198;28;751;-56
2021/08/26 03:54:31;;;;;;;;;;;;;;;20.13;66.55;100330.94;5112258;28;1468;-61
2021/08/26 03:56:57;;;;;;;;;;;;;;;20.05;65.72;100340.78;5113228;28;1549;-61
2021/08/26 03:59:22;;;;;;;;;;;;;;;19.91;62.07;100342.72;5116176;28;1490;-61
2021/08/26 04:01:48;;;;;;;;;;;;;;;19.63;60.61;100337.19;5111776;28;1344;-51
2021/08/26 04:04:13;;;;;;;;;;;;;;;19.58;62.23;100338.06;5101764;28;2338;-53
2021/08/26 04:06:39;;;;;;;;;;;;;;;19.54;62.45;100350.03;5113183;28;1494;-53
2021/08/26 04:09:04;;;;;;;;;;;;;;;19.77;61.58;100368.34;5107682;28;1270;-54
2021/08/26 04:11:29;;;;;;;;;;;;;;;20.33;63.32;100362.84;5099832;28;931;-52
2021/08/26 04:13:55;;;;;;;;;;;;;;;20.43;64.67;100368.13;5117795;28;831;-52
2021/08/26 04:16:20;;;;;;;;;;;;;;;20.68;65.80;100368.72;5116930;28;1356;-52
2021/08/26 04:18:46;;;;;;;;;;;;;;;21.01;65.35;100376.78;5106152;28;1352;-54
2021/08/26 04:21:12;;;;;;;;;;;;;;;20.57;66.52;100381.13;5110507;28;1364;-52
2021/08/26 04:23:37;;;;;;;;;;;;;;;20.36;67.01;100378.78;5097783;28;1926;-50
2021/08/26 04:26:02;;;;;;;;;;;;;;;20.29;65.02;100376.44;5099799;28;1569;-53
2021/08/26 04:28:28;;;;;;;;;;;;;;;19.99;61.35;100372.34;5117126;28;916;-57
2021/08/26 04:30:53;;;;;;;;;;;;;;;19.76;59.63;100372.22;5115993;28;1627;-52
2021/08/26 04:33:19;;;;;;;;;;;;;;;20.43;62.07;100381.13;5117309;28;873;-56
2021/08/26 04:35:44;;;;;;;;;;;;;;;20.80;63.75;100382.81;5102115;28;811;-56
2021/08/26 04:38:09;;;;;;;;;;;;;;;20.76;65.76;100380.97;5117636;28;735;-57
2021/08/26 04:40:35;;;;;;;;;;;;;;;21.19;65.08;100386.84;5116857;28;786;-47
2021/08/26 04:43:00;;;;;;;;;;;;;;;20.61;66.13;100390.41;5117161;28;1917;-51
2021/08/26 04:45:27;;;;;;;;;;;;;;;20.41;66.94;100381.44;5117819;28;751;-48
2021/08/26 04:47:52;;;;;;;;;;;;;;;20.22;64.81;100378.00;5116467;28;751;-49
2021/08/26 04:50:18;;;;;;;;;;;;;;;19.75;61.78;100383.56;5117022;28;1391;-48
2021/08/26 04:52:43;;;;;;;;;;;;;;;19.91;59.88;100378.59;5117118;28;838;-51
2021/08/26 04:55:08;;;;;;;;;;;;;;;20.47;62.29;100377.44;5116548;28;779;-55
2021/08/26 04:57:34;;;;;;;;;;;;;;;20.91;63.50;100383.38;5117004;28;1088;-55
2021/08/26 04:59:59;;;;;;;;;;;;;;;21.00;64.91;100386.25;5117810;28;792;-55
2021/08/26 05:02:25;;;;;;;;;;;;;;;21.23;64.94;100391.75;5116008;28;1909;-54
2021/08/26 05:04:50;;;;;;;;;;;;;;;20.49;66.93;100393.69;5117498;28;744;-51
2021/08/26 05:07:16;;;;;;;;;;;;;;;20.37;67.44;100393.41;5116561;28;937;-60
2021/08/26 05:09:41;;;;;;;;;;;;;;;19.73;64.75;100391.34;5116842;28;851;-59
2021/08/26 05:12:08;;;;;;;;;;;;;;;19.79;58.36;100390.09;5114011;28;1462;-47
2021/08/26 05:14:33;;;;;;;;;;;;;;;20.01;61.37;100394.97;5115807;28;843;-51
2021/08/26 05:16:59;;;;;;;;;;;;;;;20.73;63.44;100392.66;5103997;28;1444;-56
2021/08/26 05:19:25;;;;;;;;;;;;;;;21.10;64.89;100390.69;5117136;28;863;-57
2021/08/26 05:21:50;;;;;;;;;;;;;;;20.82;66.63;100399.09;5107149;28;787;-57
2021/08/26 05:24:16;;;;;;;;;;;;;;;20.44;68.84;100402.91;5116671;28;1975;-55
2021/08/26 05:26:41;;;;;;;;;;;;;;;19.98;64.67;100398.34;5115991;28;954;-55
2021/08/26 05:29:07;;;;;;;;;;;;;;;19.47;58.48;100405.56;5116779;28;814;-58
2021/08/26 05:31:32;;;;;;;;;;;;;;;19.27;59.95;100409.50;5116760;28;850;-59
2021/08/26 05:33:57;;;;;;;;;;;;;;;19.29;60.50;100402.56;5116813;28;870;-58
2021/08/26 05:36:23;;;;;;;;;;;;;;;19.06;61.25;100409.00;5116514;28;842;-58
2021/08/26 05:38:48;;;;;;;;;;;;;;;19.10;60.08;100421.06;5116899;28;806;-57
2021/08/26 05:41:14;;;;;;;;;;;;;;;19.45;57.84;100416.09;5112052;28;1336;-58
2021/08/26 05:43:39;;;;;;;;;;;;;;;19.38;57.32;100416.47;5101680;28;1910;-50
2021/08/26 05:46:05;;;;;;;;;;;;;;;19.21;57.09;100421.69;5096407;28;823;-55
2021/08/26 05:48:31;;;;;;;;;;;;;;;19.31;56.77;100427.06;5105638;28;809;-55
2021/08/26 05:50:56;;;;;;;;;;;;;;;19.56;57.44;100430.50;5115802;28;1574;-53
2021/08/26 05:53:22;;;;;;;;;;;;;;;19.91;58.03;100422.72;5116296;28;887;-54
2021/08/26 05:55:47;;;;;;;;;;;;;;;19.87;59.70;100421.75;5116747;28;771;-55
2021/08/26 05:58:13;;;;;;;;;;;;;;;20.16;60.20;100424.19;5116542;28;957;-46
2021/08/26 06:00:38;;;;;;;;;;;;;;;20.11;61.81;100422.34;5110943;28;1502;-46
2021/08/26 06:03:04;;;;;;;;;;;;;;;20.34;62.34;100414.16;5113903;28;1964;-58
2021/08/26 06:05:29;;;;;;;;;;;;;;;19.77;62.51;100423.53;5108351;28;1364;-58
2021/08/26 06:07:55;;;;;;;;;;;;;;;19.67;61.24;100420.97;5111049;28;1503;-56
2021/08/26 06:10:20;;;;;;;;;;;;;;;19.48;62.09;100430.06;5103045;28;827;-57
2021/08/26 06:12:45;;;;;;;;;;;;;;;20.03;64.78;100425.81;5113032;28;1244;-57
2021/08/26 06:15:11;;;;;;;;;;;;;;;20.41;65.83;100427.56;5106557;28;835;-56
2021/08/26 06:17:36;;;;;;;;;;;;;;;20.70;65.16;100429.19;5102170;28;809;-54
2021/08/26 06:20:03;;;;;;;;;;;;;;;20.35;65.96;100418.56;5102613;28;799;-56
2021/08/26 06:22:29;;;;;;;;;;;;;;;20.41;65.85;100414.59;5100061;28;1906;-57
2021/08/26 06:24:54;;;;;;;;;;;;;;;20.11;64.71;100414.06;5111790;28;1411;-52
2021/08/26 06:27:19;;;;;;;;;;;;;;;19.82;60.19;100404.16;5107913;28;1361;-55
2021/08/26 06:29:45;;;;;;;;;;;;;;;19.85;58.83;100404.66;5119023;28;743;-53
2021/08/26 06:32:10;;;;;;;;;;;;;;;20.54;61.77;100398.28;5119060;28;820;-53
2021/08/26 06:34:36;;;;;;;;;;;;;;;20.93;63.73;100396.88;5120211;28;759;-55
2021/08/26 06:37:01;;;;;;;;;;;;;;;21.03;65.23;100396.66;5110414;28;1553;-54
2021/08/26 06:39:27;;;;;;;;;;;;;;;20.37;68.12;100402.53;5103452;28;1435;-54
2021/08/26 06:41:52;;;;;;;;;;;;;;;20.23;69.23;100401.69;5106362;28;1444;-55
2021/08/26 06:44:18;;;;;;;;;;;;;;;20.25;66.52;100399.47;5105364;28;1909;-49
2021/08/26 06:46:44;;;;;;;;;;;;;;;19.82;61.92;100404.16;5103323;28;1554;-54
2021/08/26 06:49:09;;;;;;;;;;;;;;;19.98;57.03;100406.63;5119184;28;1435;-62
2021/08/26 06:51:35;;;;;;;;;;;;;;;20.59;61.01;100410.03;5117025;28;1415;-64
2021/08/26 06:54:00;;;;;;;;;;;;;;;20.92;61.33;100417.38;5094232;28;1364;-59
2021/08/26 06:56:25;;;;;;;;;;;;;;;21.11;64.41;100408.91;5117488;28;879;-52
2021/08/26 06:58:51;;;;;;;;;;;;;;;21.39;65.29;100406.81;5110250;28;1482;-51
2021/08/26 07:01:16;;;;;;;;;;;;;;;20.61;68.74;100401.47;5119100;28;755;-56
2021/08/26 07:03:42;;;;;;;;;;;;;;;20.53;69.65;100411.28;5110997;28;1971;-54
2021/08/26 07:06:07;;;;;;;;;;;;;;;20.27;63.55;100392.50;5118805;28;1079;-56
2021/08/26 07:08:33;;;;;;;;;;;;;;;19.54;58.30;100391.41;5118085;28;1184;-56
2021/08/26 07:10:58;;;;;;;;;;;;;;;19.50;60.39;100393.94;5118584;28;827;-57
2021/08/26 07:13:23;;;;;;;;;;;;;;;19.32;61.93;100399.19;5102780;28;1159;-56
2021/08/26 07:15:49;;;;;;;;;;;;;;;19.15;61.73;100394.25;5105321;28;1499;-48
2021/08/26 07:18:18;;;;;;;;;;;;;;;19.10;60.73;100396.25;5114979;28;1455;-55
2021/08/26 07:20:43;;;;;;;;;;;;;;;19.10;59.04;100388.81;5111398;28;1522;-55
2021/08/26 07:23:09;;;;;;;;;;;;;;;19.33;58.41;100400.00;5103303;28;1914;-54
2021/08/26 07:25:34;;;;;;;;;;;;;;;19.64;58.37;100391.19;5108540;28;751;-54
2021/08/26 07:27:59;;;;;;;;;;;;;;;19.79;59.18;100393.69;5112746;28;1495;-54
2021/08/26 07:30:26;;;;;;;;;;;;;;;19.97;59.96;100393.94;5098422;28;1357;-54
2021/08/26 07:32:52;;;;;;;;;;;;;;;19.94;60.82;100391.78;5101978;28;1508;-47
2021/08/26 07:35:17;;;;;;;;;;;;;;;20.36;60.34;100400.88;5100732;28;896;-54
2021/08/26 07:37:43;;;;;;;;;;;;;;;20.04;61.31;100399.88;5097939;28;859;-54
2021/08/26 07:40:11;;;;;;;;;;;;;;;19.63;60.16;100398.66;5098230;28;807;-45
2021/08/26 07:42:36;;;;;;;;;;;;;;;19.33;61.64;100400.00;5111988;28;1914;-57
2021/08/26 07:45:03;;;;;;;;;;;;;;;20.17;63.15;100399.06;5090510;28;1531;-54
2021/08/26 07:47:29;;;;;;;;;;;;;;;20.69;62.83;100400.72;5106745;28;817;-44
2021/08/26 07:49:54;;;;;;;;;;;;;;;20.68;62.46;100380.59;5115805;28;1448;-57
2021/08/26 07:52:20;;;;;;;;;;;;;;;20.28;63.82;100387.78;5103389;28;809;-47
2021/08/26 07:54:45;;;;;;;;;;;;;;;20.23;63.99;100380.44;5112461;28;1364;-49
2021/08/26 07:57:14;;;;;;;;;;;;;;;19.74;62.00;100380.00;5114441;28;1171;-57
2021/08/26 07:59:42;;;;;;;;;;;;;;;19.45;59.26;100370.03;5099002;28;1348;-56
2021/08/26 08:02:08;;;;;;;;;;;;;;;20.20;62.18;100375.50;5113826;28;1534;-58
2021/08/26 08:04:34;;;;;;;;;;;;;;;20.65;63.43;100380.34;5100568;28;1971;-45
2021/08/26 08:06:59;;;;;;;;;;;;;;;20.98;63.15;100383.75;5113697;28;1645;-58
2021/08/26 08:09:25;;;;;;;;;;;;;;;21.30;61.80;100384.66;5097700;28;811;-52
2021/08/26 08:11:50;;;;;;;;;;;;;;;21.30;61.47;100394.91;5115481;28;1496;-55
2021/08/26 08:14:16;;;;;;;;;;;;;;;20.37;64.49;100385.97;5117410;28;875;-57
2021/08/26 08:16:41;;;;;;;;;;;;;;;20.43;63.88;100378.38;5117783;28;736;-52
2021/08/26 08:19:06;;;;;;;;;;;;;;;19.66;60.64;100375.19;5117882;28;832;-47
2021/08/26 08:21:32;;;;;;;;;;;;;;;19.11;58.23;100364.81;5117836;28;823;-55
2021/08/26 08:23:57;;;;;;;;;;;;;;;19.85;60.17;100357.75;5116506;28;1909;-55
2021/08/26 08:26:23;;;;;;;;;;;;;;;19.86;61.47;100356.63;5116999;28;836;-54
2021/08/26 08:28:48;;;;;;;;;;;;;;;20.09;60.32;100361.13;5117430;28;815;-55
2021/08/26 08:31:14;;;;;;;;;;;;;;;19.93;59.20;100365.31;5111750;28;1503;-56
2021/08/26 08:33:39;;;;;;;;;;;;;;;20.00;58.26;100362.97;5087970;28;1036;-56
2021/08/26 08:36:05;;;;;;;;;;;;;;;19.94;57.83;100370.53;5105306;28;1507;-54
2021/08/26 08:38:30;;;;;;;;;;;;;;;19.85;57.39;100363.25;5094389;28;1415;-55
2021/08/26 08:40:56;;;;;;;;;;;;;;;19.89;56.98;100369.81;5117696;28;795;-56
2021/08/26 08:43:21;;;;;;;;;;;;;;;19.89;56.86;100367.06;5107854;28;1980;-45
2021/08/26 08:45:47;;;;;;;;;;;;;;;19.94;56.37;100355.91;5097991;28;1490;-50
2021/08/26 08:48:12;;;;;;;;;;;;;;;19.87;56.45;100352.75;5105464;28;1392;-54
2021/08/26 08:50:38;;;;;;;;;;;;;;;19.72;56.91;100359.34;5106599;28;1486;-50
2021/08/26 08:53:03;;;;;;;;;;;;;;;19.81;56.28;100352.84;5113903;28;1150;-46
2021/08/26 08:55:29;;;;;;;;;;;;;;;19.34;55.48;100354.78;5093178;28;1484;-45
2021/08/26 08:57:54;;;;;;;;;;;;;;;19.40;57.94;100353.56;5106662;28;1352;-49
2021/08/26 09:00:20;;;;;;;;;;;;;;;19.75;60.31;100359.53;5103975;28;1316;-43
2021/08/26 09:02:45;;;;;;;;;;;;;;;19.91;62.04;100356.50;5114201;28;1944;-55
2021/08/26 09:05:11;;;;;;;;;;;;;;;19.93;63.62;100354.28;5116529;28;816;-50
2021/08/26 09:07:37;;;;;;;;;;;;;;;20.09;63.40;100363.88;5117409;28;1283;-52
2021/08/26 09:10:02;;;;;;;;;;;;;;;19.58;61.53;100364.84;5116770;28;739;-54
2021/08/26 09:12:40;;;;;;;;;;;;;;;19.60;58.50;100365.34;5116840;28;938;-47
2021/08/26 09:15:08;;;;;;;;;;;;;;;19.70;60.30;100367.09;5117189;28;787;-50
2021/08/26 09:17:34;;;;;;;;;;;;;;;19.70;66.16;100362.41;5116333;28;940;-57
2021/08/26 09:20:06;;;;;;;;;;;;;;;19.80;67.95;100365.00;5116882;28;763;-46
2021/08/26 09:22:31;;;;;;;;;;;;;;;20.06;68.33;100364.47;5117294;28;1913;-55
2021/08/26 09:24:57;;;;;;;;;;;;;;;20.27;67.32;100364.91;5116572;28;751;-55
2021/08/26 09:27:32;;;;;;;;;;;;;;;20.29;68.08;100359.88;5116758;28;961;-45
2021/08/26 09:30:23;;;;;;;;;;;;;;;20.40;67.45;100346.66;5115791;28;839;-58
2021/08/26 09:32:49;;;;;;;;;;;;;;;20.52;65.08;100338.66;5112978;28;1313;-59
2021/08/26 09:35:15;;;;;;;;;;;;;;;20.48;63.19;100348.69;5120033;28;775;-57
2021/08/26 09:37:59;;;;;;;;;;;;;;;20.85;63.34;100345.94;5120475;28;838;-58
2021/08/26 09:40:25;;;;;;;;;;;;;;;20.65;66.49;100341.69;5120889;28;755;-51
2021/08/26 09:42:57;;;;;;;;;;;;;;;20.74;67.16;100339.03;5120078;28;1960;-51
2021/08/26 09:45:23;;;;;;;;;;;;;;;20.42;66.63;100333.34;5120764;28;775;-54
2021/08/26 09:47:58;;;;;;;;;;;;;;;20.52;64.00;100329.53;5121089;28;846;-55
2021/08/26 09:50:33;;;;;;;;;;;;;;;20.73;61.76;100338.19;5120541;28;1672;-60
2021/08/26 09:52:59;;;;;;;;;;;;;;;20.85;63.26;100330.19;5120547;28;819;-57
2021/08/26 09:55:24;;;;;;;;;;;;;;;20.84;64.84;100311.97;5120139;28;846;-54
2021/08/26 09:57:49;;;;;;;;;;;;;;;21.00;65.28;100312.41;5120432;28;1001;-57
2021/08/26 10:00:15;;;;;;;;;;;;;;;20.37;65.62;100327.97;5101822;28;1258;-59
2021/08/26 10:02:46;;;;;;;;;;;;;;;20.55;66.15;100319.81;5102815;28;1992;-60
2021/08/26 10:05:11;;;;;;;;;;;;;;;20.98;64.53;100322.16;5120569;28;790;-58
2021/08/26 10:07:37;;;;;;;;;;;;;;;21.00;64.24;100320.69;5119894;28;1249;-59
2021/08/26 10:10:02;;;;;;;;;;;;;;;21.15;63.85;100322.28;5120570;28;747;-57
2021/08/26 10:12:28;;;;;;;;;;;;;;;20.78;65.04;100324.28;5119763;28;1016;-59
2021/08/26 10:14:53;;;;;;;;;;;;;;;20.49;64.44;100317.16;5101998;28;804;-59
2021/08/26 10:17:19;;;;;;;;;;;;;;;19.79;64.46;100310.09;5120478;28;855;-58
2021/08/26 10:19:45;;;;;;;;;;;;;;;19.35;65.13;100317.84;5119810;28;824;-60
2021/08/26 10:22:10;;;;;;;;;;;;;;;19.16;64.73;100317.88;5119799;28;874;-58
2021/08/26 10:24:36;;;;;;;;;;;;;;;19.08;64.27;100305.63;5120193;28;1910;-58
2021/08/26 10:27:05;;;;;;;;;;;;;;;19.13;62.80;100308.28;5119746;28;953;-59
2021/08/26 10:29:31;;;;;;;;;;;;;;;19.19;61.38;100311.75;5119335;28;1300;-48
2021/08/26 10:31:58;;;;;;;;;;;;;;;19.03;60.58;100305.72;5095131;28;1282;-56
2021/08/26 10:34:23;;;;;;;;;;;;;;;18.85;59.62;100314.81;5110746;28;1210;-48
2021/08/26 10:36:49;;;;;;;;;;;;;;;19.19;58.20;100305.44;5106734;28;1495;-47
2021/08/26 10:39:33;;;;;;;;;;;;;;;19.48;57.92;100311.50;5101414;28;1440;-56
2021/08/26 10:42:19;;;;;;;;;;;;;;;19.85;58.41;100297.03;5108563;28;1324;-47
2021/08/26 10:44:58;;;;;;;;;;;;;;;19.78;60.36;100294.66;5088932;28;1620;-49
2021/08/26 10:47:23;;;;;;;;;;;;;;;19.77;61.53;100285.59;5118761;28;811;-46
2021/08/26 10:50:08;;;;;;;;;;;;;;;19.89;61.27;100295.31;5117702;28;1743;-45
2021/08/26 10:52:51;;;;;;;;;;;;;;;19.05;61.05;100284.16;5119463;28;823;-55
2021/08/26 10:55:31;;;;;;;;;;;;;;;19.67;61.98;100289.38;5110854;28;1372;-47
2021/08/26 10:58:16;;;;;;;;;;;;;;;20.48;63.70;100290.69;5112828;28;950;-54
2021/08/26 11:00:45;;;;;;;;;;;;;;;21.06;64.17;100290.97;5108841;28;1447;-56
2021/08/26 11:03:10;;;;;;;;;;;;;;;20.51;66.94;100284.56;5100827;28;1913;-46
2021/08/26 11:05:36;;;;;;;;;;;;;;;20.62;67.51;100282.38;5111816;28;1360;-45
2021/08/26 11:08:22;;;;;;;;;;;;;;;20.33;64.06;100271.72;5109823;28;1400;-49
2021/08/26 11:10:47;;;;;;;;;;;;;;;19.40;59.50;100270.03;5092602;28;1416;-56
2021/08/26 11:13:26;;;;;;;;;;;;;;;19.88;60.75;100274.34;5093820;28;1278;-56
2021/08/26 11:15:52;;;;;;;;;;;;;;;20.52;60.43;100269.63;5104705;28;1557;-44
2021/08/26 11:18:30;;;;;;;;;;;;;;;20.49;60.90;100266.66;5108825;28;740;-46
2021/08/26 11:20:55;;;;;;;;;;;;;;;19.99;62.19;100273.00;5098152;28;1193;-46
2021/08/26 11:23:41;;;;;;;;;;;;;;;19.83;61.63;100267.81;5100272;28;1975;-52
2021/08/26 11:26:26;;;;;;;;;;;;;;;19.90;59.74;100274.88;5112809;28;1707;-58
2021/08/26 11:28:52;;;;;;;;;;;;;;;19.96;58.40;100270.88;5089176;28;1436;-46
2021/08/26 11:31:18;;;;;;;;;;;;;;;20.02;57.70;100268.81;5112203;28;1489;-46
2021/08/26 11:33:43;;;;;;;;;;;;;;;19.83;57.70;100267.81;5115701;28;1134;-56
2021/08/26 11:36:15;;;;;;;;;;;;;;;19.85;57.18;100274.97;5117187;28;1285;-58
2021/08/26 11:38:47;;;;;;;;;;;;;;;19.66;57.57;100279.44;5118208;28;1225;-52
2021/08/26 11:41:12;;;;;;;;;;;;;;;19.27;56.98;100272.47;5115401;28;1265;-44
2021/08/26 11:43:42;;;;;;;;;;;;;;;18.99;59.38;100266.09;5117634;28;1921;-56
2021/08/26 11:46:11;;;;;;;;;;;;;;;19.40;58.51;100259.81;5118132;28;1280;-56
2021/08/26 11:48:44;;;;;;;;;;;;;;;19.72;58.65;100262.81;5117202;28;1252;-45
2021/08/26 11:51:18;;;;;;;;;;;;;;;19.91;59.50;100251.66;5097244;28;1155;-44
2021/08/26 11:53:43;;;;;;;;;;;;;;;19.89;60.41;100248.41;5117708;28;1360;-59
2021/08/26 11:56:09;;;;;;;;;;;;;;;19.80;61.61;100254.66;5118082;28;1328;-45
2021/08/26 11:58:35;;;;;;;;;;;;;;;19.92;60.92;100261.56;5117216;28;869;-50
2021/08/26 12:01:00;;;;;;;;;;;;;;;19.28;60.58;100262.28;5118182;28;854;-44
2021/08/26 12:03:27;;;;;;;;;;;;;;;18.85;59.32;100257.75;5117241;28;1980;-56
2021/08/26 12:05:52;;;;;;;;;;;;;;;20.01;62.12;100259.72;5117796;28;819;-44
2021/08/26 12:08:19;;;;;;;;;;;;;;;20.58;63.01;100259.25;5104747;28;1543;-56
2021/08/26 12:10:45;;;;;;;;;;;;;;;20.98;63.28;100253.84;5107400;28;839;-56
2021/08/26 12:13:14;;;;;;;;;;;;;;;20.74;64.60;100243.13;5117159;28;918;-57
2021/08/26 12:15:39;;;;;;;;;;;;;;;20.35;66.48;100239.09;5117236;28;807;-57
2021/08/26 12:18:11;;;;;;;;;;;;;;;20.23;64.19;100239.66;5103695;28;1292;-53
2021/08/26 12:20:40;;;;;;;;;;;;;;;19.88;60.67;100232.97;5079537;28;811;-58
2021/08/26 12:23:06;;;;;;;;;;;;;;;19.95;58.47;100231.44;5101555;28;1913;-58
2021/08/26 12:25:33;;;;;;;;;;;;;;;19.99;63.41;100242.66;5095480;28;1270;-47
2021/08/26 12:27:59;;;;;;;;;;;;;;;19.66;67.59;100235.31;5109023;28;1495;-59
2021/08/26 12:30:28;;;;;;;;;;;;;;;20.02;67.51;100224.66;5107359;28;1325;-58
2021/08/26 12:33:03;;;;;;;;;;;;;;;19.98;68.92;100224.47;5106771;28;1419;-59
2021/08/26 12:35:29;;;;;;;;;;;;;;;20.09;69.28;100223.13;5108554;28;1515;-51
2021/08/26 12:37:54;;;;;;;;;;;;;;;20.14;67.68;100227.69;5096932;28;1346;-57
2021/08/26 12:40:20;;;;;;;;;;;;;;;20.02;65.93;100235.69;5099061;28;1526;-58
2021/08/26 12:43:00;;;;;;;;;;;;;;;20.09;65.12;100225.88;5104486;28;1968;-45
2021/08/26 12:45:26;;;;;;;;;;;;;;;20.20;67.01;100223.69;5110743;28;1356;-57
2021/08/26 12:47:51;;;;;;;;;;;;;;;20.26;67.42;100224.38;5104526;28;1388;-57
2021/08/26 12:50:27;;;;;;;;;;;;;;;20.28;67.82;100216.63;5115716;28;1563;-58
2021/08/26 12:52:52;;;;;;;;;;;;;;;20.34;67.40;100212.59;5109036;28;1174;-58
2021/08/26 12:55:18;;;;;;;;;;;;;;;20.39;67.46;100222.72;5104715;28;1345;-46